sensor_id;sensor_type;location;lat;lon;timestamp;temperature;humidity
2010;DHT22;1008;47.404;8.502;2024-02-14T00:02:23;7.40;99.90
2010;DHT22;1008;47.404;8.502;2024-02-14T00:04:51;7.40;99.90
2010;DHT22;1008;47.404;8.502;2024-02-14T00:07:18;7.50;99.90
2010;DHT22;1008;47.404;8.502;2024-02-14T00:09:45;7.50;99.90
2010;DHT22;1008;47.404;8.502;2024-02-14T00:12:12;7.50;99.90
2010;DHT22;1008;47.404;8.502;2024-02-14T00:14:39;7.20;99.90
2010;DHT22;1008;47.404;8.502;2024-02-14T00:17:07;7.30;99.90
2010;DHT22;1008;47.404;8.502;2024-02-14T00:19:36;7.40;99.90
2010;DHT22;1008;47.404;8.502;2024-02-14T00:22:03;7.50;99.90
2010;DHT22;1008;47.404;8.502;2024-02-14T00:24:30;7.60;99.90
2010;DHT22;1008;47.404;8.502;2024-02-14T00:26:57;7.70;99.90
2010;DHT22;1008;47.404;8.502;2024-02-14T00:29:26;7.70;99.90
2010;DHT22;1008;47.404;8.502;2024-02-14T00:31:55;7.80;99.90
2010;DHT22;1008;47.404;8.502;2024-02-14T00:34:23;7.60;99.90
2010;DHT22;1008;47.404;8.502;2024-02-14T00:36:50;7.50;99.90
2010;DHT22;1008;47.404;8.502;2024-02-14T00:39:17;7.60;99.90
2010;DHT22;1008;47.404;8.502;2024-02-14T00:41:46;7.60;99.90
2010;DHT22;1008;47.404;8.502;2024-02-14T00:44:13;7.30;99.90
2010;DHT22;1008;47.404;8.502;2024-02-14T00:46:42;7.20;99.90
2010;DHT22;1008;47.404;8.502;2024-02-14T00:49:11;7.30;99.90
2010;DHT22;1008;47.404;8.502;2024-02-14T00:51:40;7.30;99.90
2010;DHT22;1008;47.404;8.502;2024-02-14T00:54:07;7.10;99.90
2010;DHT22;1008;47.404;8.502;2024-02-14T00:56:34;7.20;99.90
2010;DHT22;1008;47.404;8.502;2024-02-14T00:59:01;7.20;99.90
2010;DHT22;1008;47.404;8.502;2024-02-14T01:01:28;7.30;99.90
2010;DHT22;1008;47.404;8.502;2024-02-14T01:03:55;7.20;99.90
2010;DHT22;1008;47.404;8.502;2024-02-14T01:06:22;7.30;99.90
2010;DHT22;1008;47.404;8.502;2024-02-14T01:08:51;7.40;99.90
2010;DHT22;1008;47.404;8.502;2024-02-14T01:11:18;7.30;99.90
2010;DHT22;1008;47.404;8.502;2024-02-14T01:13:45;7.40;99.90
2010;DHT22;1008;47.404;8.502;2024-02-14T01:16:12;7.20;99.90
2010;DHT22;1008;47.404;8.502;2024-02-14T01:18:40;7.30;99.90
2010;DHT22;1008;47.404;8.502;2024-02-14T01:21:06;7.40;99.90
2010;DHT22;1008;47.404;8.502;2024-02-14T01:23:33;7.40;99.90
2010;DHT22;1008;47.404;8.502;2024-02-14T01:26:02;7.50;99.90
2010;DHT22;1008;47.404;8.502;2024-02-14T01:28:29;7.60;99.90
2010;DHT22;1008;47.404;8.502;2024-02-14T01:30:56;7.50;99.90
2010;DHT22;1008;47.404;8.502;2024-02-14T01:33:23;7.60;99.90
2010;DHT22;1008;47.404;8.502;2024-02-14T01:35:49;7.50;99.90
2010;DHT22;1008;47.404;8.502;2024-02-14T01:38:16;7.60;99.90
2010;DHT22;1008;47.404;8.502;2024-02-14T01:40:43;7.40;99.90
2010;DHT22;1008;47.404;8.502;2024-02-14T01:43:13;7.50;99.90
2010;DHT22;1008;47.404;8.502;2024-02-14T01:45:43;7.70;99.90
2010;DHT22;1008;47.404;8.502;2024-02-14T01:48:10;7.80;99.90
2010;DHT22;1008;47.404;8.502;2024-02-14T01:50:40;7.60;99.90
2010;DHT22;1008;47.404;8.502;2024-02-14T01:53:07;7.70;99.90
2010;DHT22;1008;47.404;8.502;2024-02-14T01:55:34;7.60;99.90
2010;DHT22;1008;47.404;8.502;2024-02-14T01:58:01;7.60;99.90
2010;DHT22;1008;47.404;8.502;2024-02-14T02:00:34;7.80;99.90
2010;DHT22;1008;47.404;8.502;2024-02-14T02:03:02;7.90;99.90
2010;DHT22;1008;47.404;8.502;2024-02-14T02:05:29;7.70;99.90
2010;DHT22;1008;47.404;8.502;2024-02-14T02:07:56;7.90;99.90
2010;DHT22;1008;47.404;8.502;2024-02-14T02:10:23;7.70;99.90
2010;DHT22;1008;47.404;8.502;2024-02-14T02:12:51;7.60;99.90
2010;DHT22;1008;47.404;8.502;2024-02-14T02:15:23;7.50;99.90
2010;DHT22;1008;47.404;8.502;2024-02-14T02:17:51;7.60;99.90
2010;DHT22;1008;47.404;8.502;2024-02-14T02:20:19;7.80;99.90
2010;DHT22;1008;47.404;8.502;2024-02-14T02:22:48;7.60;99.90
2010;DHT22;1008;47.404;8.502;2024-02-14T02:25:15;7.60;99.90
2010;DHT22;1008;47.404;8.502;2024-02-14T02:27:41;7.50;99.90
2010;DHT22;1008;47.404;8.502;2024-02-14T02:30:08;7.60;99.90
2010;DHT22;1008;47.404;8.502;2024-02-14T02:32:36;7.70;99.90
2010;DHT22;1008;47.404;8.502;2024-02-14T02:35:03;7.70;99.90
2010;DHT22;1008;47.404;8.502;2024-02-14T02:37:30;7.70;99.90
2010;DHT22;1008;47.404;8.502;2024-02-14T02:39:59;7.50;99.90
2010;DHT22;1008;47.404;8.502;2024-02-14T02:42:25;7.60;99.90
2010;DHT22;1008;47.404;8.502;2024-02-14T02:44:52;7.60;99.90
2010;DHT22;1008;47.404;8.502;2024-02-14T02:47:19;7.60;99.90
2010;DHT22;1008;47.404;8.502;2024-02-14T02:49:46;7.50;99.90
2010;DHT22;1008;47.404;8.502;2024-02-14T02:52:13;7.50;99.90
2010;DHT22;1008;47.404;8.502;2024-02-14T02:54:40;7.30;99.90
2010;DHT22;1008;47.404;8.502;2024-02-14T02:57:11;7.50;99.90
2010;DHT22;1008;47.404;8.502;2024-02-14T02:59:38;7.40;99.90
2010;DHT22;1008;47.404;8.502;2024-02-14T03:02:08;7.50;99.90
2010;DHT22;1008;47.404;8.502;2024-02-14T03:04:37;7.50;99.90
2010;DHT22;1008;47.404;8.502;2024-02-14T03:07:04;7.40;99.90
2010;DHT22;1008;47.404;8.502;2024-02-14T03:09:33;7.30;99.90
2010;DHT22;1008;47.404;8.502;2024-02-14T03:12:00;7.30;99.90
2010;DHT22;1008;47.404;8.502;2024-02-14T03:14:30;7.20;99.90
2010;DHT22;1008;47.404;8.502;2024-02-14T03:16:59;7.30;99.90
2010;DHT22;1008;47.404;8.502;2024-02-14T03:19:26;7.20;99.90
2010;DHT22;1008;47.404;8.502;2024-02-14T03:21:54;7.60;99.90
2010;DHT22;1008;47.404;8.502;2024-02-14T03:24:20;7.40;99.90
2010;DHT22;1008;47.404;8.502;2024-02-14T03:26:47;7.40;99.90
2010;DHT22;1008;47.404;8.502;2024-02-14T03:29:18;7.70;99.90
2010;DHT22;1008;47.404;8.502;2024-02-14T03:31:47;7.50;99.90
2010;DHT22;1008;47.404;8.502;2024-02-14T03:34:14;7.60;99.90
2010;DHT22;1008;47.404;8.502;2024-02-14T03:36:41;7.40;99.90
2010;DHT22;1008;47.404;8.502;2024-02-14T03:39:08;7.50;99.90
2010;DHT22;1008;47.404;8.502;2024-02-14T03:41:34;7.60;99.90
2010;DHT22;1008;47.404;8.502;2024-02-14T03:44:01;7.70;99.90
2010;DHT22;1008;47.404;8.502;2024-02-14T03:46:29;7.80;99.90
2010;DHT22;1008;47.404;8.502;2024-02-14T03:48:57;7.80;99.90
2010;DHT22;1008;47.404;8.502;2024-02-14T03:51:24;7.70;99.90
2010;DHT22;1008;47.404;8.502;2024-02-14T03:53:51;7.60;99.90
2010;DHT22;1008;47.404;8.502;2024-02-14T03:56:18;7.70;99.90
2010;DHT22;1008;47.404;8.502;2024-02-14T03:58:44;7.70;99.90
2010;DHT22;1008;47.404;8.502;2024-02-14T04:01:12;7.80;99.90
2010;DHT22;1008;47.404;8.502;2024-02-14T04:03:39;7.80;99.90
2010;DHT22;1008;47.404;8.502;2024-02-14T04:06:07;7.70;99.90
2010;DHT22;1008;47.404;8.502;2024-02-14T04:08:33;7.60;99.90
2010;DHT22;1008;47.404;8.502;2024-02-14T04:11:00;7.50;99.90
2010;DHT22;1008;47.404;8.502;2024-02-14T04:13:27;7.40;99.90
2010;DHT22;1008;47.404;8.502;2024-02-14T04:15:54;7.40;99.90
2010;DHT22;1008;47.404;8.502;2024-02-14T04:18:20;7.30;99.90
2010;DHT22;1008;47.404;8.502;2024-02-14T04:20:47;7.30;99.90
2010;DHT22;1008;47.404;8.502;2024-02-14T04:23:15;7.10;99.90
2010;DHT22;1008;47.404;8.502;2024-02-14T04:25:42;7.20;99.90
2010;DHT22;1008;47.404;8.502;2024-02-14T04:28:09;7.10;99.90
2010;DHT22;1008;47.404;8.502;2024-02-14T04:30:37;7.00;99.90
2010;DHT22;1008;47.404;8.502;2024-02-14T04:33:04;6.90;99.90
2010;DHT22;1008;47.404;8.502;2024-02-14T04:35:31;6.80;99.90
2010;DHT22;1008;47.404;8.502;2024-02-14T04:37:59;6.90;99.90
2010;DHT22;1008;47.404;8.502;2024-02-14T04:40:27;6.90;99.90
2010;DHT22;1008;47.404;8.502;2024-02-14T04:42:54;6.80;99.90
2010;DHT22;1008;47.404;8.502;2024-02-14T04:45:21;6.90;99.90
2010;DHT22;1008;47.404;8.502;2024-02-14T04:47:47;6.90;99.90
2010;DHT22;1008;47.404;8.502;2024-02-14T04:50:14;6.90;99.90
2010;DHT22;1008;47.404;8.502;2024-02-14T04:52:41;7.00;99.90
2010;DHT22;1008;47.404;8.502;2024-02-14T04:55:08;7.10;99.90
2010;DHT22;1008;47.404;8.502;2024-02-14T04:57:36;7.00;99.90
2010;DHT22;1008;47.404;8.502;2024-02-14T05:00:04;7.00;99.90
2010;DHT22;1008;47.404;8.502;2024-02-14T05:02:31;7.20;99.90
2010;DHT22;1008;47.404;8.502;2024-02-14T05:04:58;7.10;99.90
2010;DHT22;1008;47.404;8.502;2024-02-14T05:07:24;7.10;99.90
2010;DHT22;1008;47.404;8.502;2024-02-14T05:09:51;7.00;99.90
2010;DHT22;1008;47.404;8.502;2024-02-14T05:12:20;7.00;99.90
2010;DHT22;1008;47.404;8.502;2024-02-14T05:14:48;6.80;99.90
2010;DHT22;1008;47.404;8.502;2024-02-14T05:17:15;6.80;99.90
2010;DHT22;1008;47.404;8.502;2024-02-14T05:19:42;7.00;99.90
2010;DHT22;1008;47.404;8.502;2024-02-14T05:22:09;7.00;99.90
2010;DHT22;1008;47.404;8.502;2024-02-14T05:24:36;6.80;99.90
2010;DHT22;1008;47.404;8.502;2024-02-14T05:27:04;6.90;99.90
2010;DHT22;1008;47.404;8.502;2024-02-14T05:29:31;6.70;99.90
2010;DHT22;1008;47.404;8.502;2024-02-14T05:32:00;6.90;99.90
2010;DHT22;1008;47.404;8.502;2024-02-14T05:34:26;6.80;99.90
2010;DHT22;1008;47.404;8.502;2024-02-14T05:36:53;6.70;99.90
2010;DHT22;1008;47.404;8.502;2024-02-14T05:39:20;6.70;99.90
2010;DHT22;1008;47.404;8.502;2024-02-14T05:41:46;6.80;99.90
2010;DHT22;1008;47.404;8.502;2024-02-14T05:44:14;6.90;99.90
2010;DHT22;1008;47.404;8.502;2024-02-14T05:46:41;7.00;99.90
2010;DHT22;1008;47.404;8.502;2024-02-14T05:49:09;7.10;99.90
2010;DHT22;1008;47.404;8.502;2024-02-14T05:51:35;7.00;99.90
2010;DHT22;1008;47.404;8.502;2024-02-14T05:54:02;7.00;99.90
2010;DHT22;1008;47.404;8.502;2024-02-14T05:56:29;6.80;99.90
2010;DHT22;1008;47.404;8.502;2024-02-14T05:58:55;6.80;99.90
2010;DHT22;1008;47.404;8.502;2024-02-14T06:01:22;7.00;99.90
2010;DHT22;1008;47.404;8.502;2024-02-14T06:03:49;6.90;99.90
2010;DHT22;1008;47.404;8.502;2024-02-14T06:06:17;6.80;99.90
2010;DHT22;1008;47.404;8.502;2024-02-14T06:08:43;6.90;99.90
2010;DHT22;1008;47.404;8.502;2024-02-14T06:11:10;6.70;99.90
2010;DHT22;1008;47.404;8.502;2024-02-14T06:13:38;6.70;99.90
2010;DHT22;1008;47.404;8.502;2024-02-14T06:16:05;6.70;99.90
2010;DHT22;1008;47.404;8.502;2024-02-14T06:18:33;6.80;99.90
2010;DHT22;1008;47.404;8.502;2024-02-14T06:21:01;6.80;99.90
2010;DHT22;1008;47.404;8.502;2024-02-14T06:23:29;6.90;99.90
2010;DHT22;1008;47.404;8.502;2024-02-14T06:25:56;6.90;99.90
2010;DHT22;1008;47.404;8.502;2024-02-14T06:28:23;6.80;99.90
2010;DHT22;1008;47.404;8.502;2024-02-14T06:30:49;6.80;99.90
2010;DHT22;1008;47.404;8.502;2024-02-14T06:33:16;7.00;99.90
2010;DHT22;1008;47.404;8.502;2024-02-14T06:35:44;6.90;99.90
2010;DHT22;1008;47.404;8.502;2024-02-14T06:38:10;7.00;99.90
2010;DHT22;1008;47.404;8.502;2024-02-14T06:40:38;7.10;99.90
2010;DHT22;1008;47.404;8.502;2024-02-14T06:43:05;7.10;99.90
2010;DHT22;1008;47.404;8.502;2024-02-14T06:45:33;7.10;99.90
2010;DHT22;1008;47.404;8.502;2024-02-14T06:47:59;7.10;99.90
2010;DHT22;1008;47.404;8.502;2024-02-14T06:50:26;7.20;99.90
2010;DHT22;1008;47.404;8.502;2024-02-14T06:52:54;7.30;99.90
2010;DHT22;1008;47.404;8.502;2024-02-14T06:55:24;7.30;99.90
2010;DHT22;1008;47.404;8.502;2024-02-14T06:57:52;7.30;99.90
2010;DHT22;1008;47.404;8.502;2024-02-14T07:00:20;7.50;99.90
2010;DHT22;1008;47.404;8.502;2024-02-14T07:02:47;7.60;99.90
2010;DHT22;1008;47.404;8.502;2024-02-14T07:05:13;7.40;99.90
2010;DHT22;1008;47.404;8.502;2024-02-14T07:07:40;7.50;99.90
2010;DHT22;1008;47.404;8.502;2024-02-14T07:10:08;7.50;99.90
2010;DHT22;1008;47.404;8.502;2024-02-14T07:12:35;7.70;99.90
2010;DHT22;1008;47.404;8.502;2024-02-14T07:15:05;7.80;99.90
2010;DHT22;1008;47.404;8.502;2024-02-14T07:17:31;7.80;99.90
2010;DHT22;1008;47.404;8.502;2024-02-14T07:19:58;7.80;99.90
2010;DHT22;1008;47.404;8.502;2024-02-14T07:22:25;7.70;99.90
2010;DHT22;1008;47.404;8.502;2024-02-14T07:24:52;7.90;99.90
2010;DHT22;1008;47.404;8.502;2024-02-14T07:27:19;7.60;99.90
2010;DHT22;1008;47.404;8.502;2024-02-14T07:29:47;7.40;99.90
2010;DHT22;1008;47.404;8.502;2024-02-14T07:32:15;7.50;99.90
2010;DHT22;1008;47.404;8.502;2024-02-14T07:34:42;7.50;99.90
2010;DHT22;1008;47.404;8.502;2024-02-14T07:37:09;7.70;99.90
2010;DHT22;1008;47.404;8.502;2024-02-14T07:39:36;7.70;99.90
2010;DHT22;1008;47.404;8.502;2024-02-14T07:42:03;7.80;99.90
2010;DHT22;1008;47.404;8.502;2024-02-14T07:44:31;7.80;99.90
2010;DHT22;1008;47.404;8.502;2024-02-14T07:46:57;7.90;99.90
2010;DHT22;1008;47.404;8.502;2024-02-14T07:49:25;7.70;99.90
2010;DHT22;1008;47.404;8.502;2024-02-14T07:51:52;7.70;99.90
2010;DHT22;1008;47.404;8.502;2024-02-14T07:54:19;7.70;99.90
2010;DHT22;1008;47.404;8.502;2024-02-14T07:56:45;7.70;99.90
2010;DHT22;1008;47.404;8.502;2024-02-14T07:59:12;7.80;99.90
2010;DHT22;1008;47.404;8.502;2024-02-14T08:01:38;7.90;99.90
2010;DHT22;1008;47.404;8.502;2024-02-14T08:04:05;8.00;99.90
2010;DHT22;1008;47.404;8.502;2024-02-14T08:06:33;7.90;99.90
2010;DHT22;1008;47.404;8.502;2024-02-14T08:09:00;8.00;99.90
2010;DHT22;1008;47.404;8.502;2024-02-14T08:11:27;8.10;99.90
2010;DHT22;1008;47.404;8.502;2024-02-14T08:13:54;8.10;99.90
2010;DHT22;1008;47.404;8.502;2024-02-14T08:16:21;8.00;99.90
2010;DHT22;1008;47.404;8.502;2024-02-14T08:18:48;8.00;99.90
2010;DHT22;1008;47.404;8.502;2024-02-14T08:21:16;8.20;99.90
2010;DHT22;1008;47.404;8.502;2024-02-14T08:23:44;8.30;99.90
2010;DHT22;1008;47.404;8.502;2024-02-14T08:26:10;8.30;99.90
2010;DHT22;1008;47.404;8.502;2024-02-14T08:28:37;8.50;99.90
2010;DHT22;1008;47.404;8.502;2024-02-14T08:31:09;8.60;99.90
2010;DHT22;1008;47.404;8.502;2024-02-14T08:33:36;8.60;99.90
2010;DHT22;1008;47.404;8.502;2024-02-14T08:36:04;8.90;99.90
2010;DHT22;1008;47.404;8.502;2024-02-14T08:38:31;9.00;99.90
2010;DHT22;1008;47.404;8.502;2024-02-14T08:40:59;9.00;99.90
2010;DHT22;1008;47.404;8.502;2024-02-14T08:43:25;9.00;99.90
2010;DHT22;1008;47.404;8.502;2024-02-14T08:45:53;9.10;99.90
2010;DHT22;1008;47.404;8.502;2024-02-14T08:48:20;9.30;99.90
2010;DHT22;1008;47.404;8.502;2024-02-14T08:50:47;9.30;99.90
2010;DHT22;1008;47.404;8.502;2024-02-14T08:53:14;9.40;99.90
2010;DHT22;1008;47.404;8.502;2024-02-14T08:55:41;9.50;99.90
2010;DHT22;1008;47.404;8.502;2024-02-14T08:58:09;9.40;99.90
2010;DHT22;1008;47.404;8.502;2024-02-14T09:00:36;9.50;99.90
2010;DHT22;1008;47.404;8.502;2024-02-14T09:03:04;9.40;99.90
2010;DHT22;1008;47.404;8.502;2024-02-14T09:05:31;9.50;99.90
2010;DHT22;1008;47.404;8.502;2024-02-14T09:07:58;9.50;99.90
2010;DHT22;1008;47.404;8.502;2024-02-14T09:10:25;9.60;99.90
2010;DHT22;1008;47.404;8.502;2024-02-14T09:12:52;9.50;99.90
2010;DHT22;1008;47.404;8.502;2024-02-14T09:15:20;9.50;99.90
2010;DHT22;1008;47.404;8.502;2024-02-14T09:17:48;9.50;99.90
2010;DHT22;1008;47.404;8.502;2024-02-14T09:20:14;9.60;99.90
2010;DHT22;1008;47.404;8.502;2024-02-14T09:22:41;9.90;99.90
2010;DHT22;1008;47.404;8.502;2024-02-14T09:25:08;9.90;99.90
2010;DHT22;1008;47.404;8.502;2024-02-14T09:27:35;10.00;99.90
2010;DHT22;1008;47.404;8.502;2024-02-14T09:30:02;10.00;99.90
2010;DHT22;1008;47.404;8.502;2024-02-14T09:32:31;10.00;99.90
2010;DHT22;1008;47.404;8.502;2024-02-14T09:34:58;10.20;99.90
2010;DHT22;1008;47.404;8.502;2024-02-14T09:37:25;10.60;99.10
2010;DHT22;1008;47.404;8.502;2024-02-14T09:39:52;10.70;97.70
2010;DHT22;1008;47.404;8.502;2024-02-14T09:42:24;11.00;97.10
2010;DHT22;1008;47.404;8.502;2024-02-14T09:44:58;11.20;97.00
2010;DHT22;1008;47.404;8.502;2024-02-14T09:47:25;11.50;96.30
2010;DHT22;1008;47.404;8.502;2024-02-14T09:49:57;11.70;94.00
2010;DHT22;1008;47.404;8.502;2024-02-14T09:52:24;11.80;91.80
2010;DHT22;1008;47.404;8.502;2024-02-14T09:54:52;11.50;92.90
2010;DHT22;1008;47.404;8.502;2024-02-14T09:57:19;11.30;92.00
2010;DHT22;1008;47.404;8.502;2024-02-14T09:59:48;11.70;93.90
2010;DHT22;1008;47.404;8.502;2024-02-14T10:02:15;11.70;88.50
2010;DHT22;1008;47.404;8.502;2024-02-14T10:04:43;11.70;90.60
2010;DHT22;1008;47.404;8.502;2024-02-14T10:07:11;11.70;87.70
2010;DHT22;1008;47.404;8.502;2024-02-14T10:09:41;11.90;90.10
2010;DHT22;1008;47.404;8.502;2024-02-14T10:12:08;11.70;89.10
2010;DHT22;1008;47.404;8.502;2024-02-14T10:14:35;11.90;87.40
2010;DHT22;1008;47.404;8.502;2024-02-14T10:17:02;12.30;89.70
2010;DHT22;1008;47.404;8.502;2024-02-14T10:19:30;12.70;85.70
2010;DHT22;1008;47.404;8.502;2024-02-14T10:21:57;13.10;85.40
2010;DHT22;1008;47.404;8.502;2024-02-14T10:24:26;13.30;83.20
2010;DHT22;1008;47.404;8.502;2024-02-14T10:26:53;13.50;82.00
2010;DHT22;1008;47.404;8.502;2024-02-14T10:29:22;13.60;80.60
2010;DHT22;1008;47.404;8.502;2024-02-14T10:31:48;13.30;77.10
2010;DHT22;1008;47.404;8.502;2024-02-14T10:34:16;13.70;79.80
2010;DHT22;1008;47.404;8.502;2024-02-14T10:36:44;13.70;74.70
2010;DHT22;1008;47.404;8.502;2024-02-14T10:39:11;14.00;74.60
2010;DHT22;1008;47.404;8.502;2024-02-14T10:41:39;13.60;72.80
2010;DHT22;1008;47.404;8.502;2024-02-14T10:44:06;13.60;73.40
2010;DHT22;1008;47.404;8.502;2024-02-14T10:46:36;13.30;73.10
2010;DHT22;1008;47.404;8.502;2024-02-14T10:49:04;13.20;73.70
2010;DHT22;1008;47.404;8.502;2024-02-14T10:51:33;13.10;73.40
2010;DHT22;1008;47.404;8.502;2024-02-14T10:54:02;13.50;74.70
2010;DHT22;1008;47.404;8.502;2024-02-14T10:56:31;14.10;73.60
2010;DHT22;1008;47.404;8.502;2024-02-14T10:59:01;13.80;70.20
2010;DHT22;1008;47.404;8.502;2024-02-14T11:01:29;13.40;71.30
2010;DHT22;1008;47.404;8.502;2024-02-14T11:03:58;13.40;70.80
2010;DHT22;1008;47.404;8.502;2024-02-14T11:06:26;13.20;72.70
2010;DHT22;1008;47.404;8.502;2024-02-14T11:08:58;13.40;75.60
2010;DHT22;1008;47.404;8.502;2024-02-14T11:11:28;13.50;73.20
2010;DHT22;1008;47.404;8.502;2024-02-14T11:13:56;13.50;71.80
2010;DHT22;1008;47.404;8.502;2024-02-14T11:16:25;13.20;72.60
2010;DHT22;1008;47.404;8.502;2024-02-14T11:18:53;13.40;74.40
2010;DHT22;1008;47.404;8.502;2024-02-14T11:21:28;13.00;73.60
2010;DHT22;1008;47.404;8.502;2024-02-14T11:23:55;13.20;75.30
2010;DHT22;1008;47.404;8.502;2024-02-14T11:26:22;13.50;73.70
2010;DHT22;1008;47.404;8.502;2024-02-14T11:28:49;13.80;73.30
2010;DHT22;1008;47.404;8.502;2024-02-14T11:31:32;14.10;72.30
2010;DHT22;1008;47.404;8.502;2024-02-14T11:34:03;14.60;72.20
2010;DHT22;1008;47.404;8.502;2024-02-14T11:36:31;14.60;70.20
2010;DHT22;1008;47.404;8.502;2024-02-14T11:38:58;14.30;69.10
2010;DHT22;1008;47.404;8.502;2024-02-14T11:41:27;14.60;71.20
2010;DHT22;1008;47.404;8.502;2024-02-14T11:43:54;14.40;70.70
2010;DHT22;1008;47.404;8.502;2024-02-14T11:46:20;14.30;70.40
2010;DHT22;1008;47.404;8.502;2024-02-14T11:48:48;14.20;70.40
2010;DHT22;1008;47.404;8.502;2024-02-14T11:51:15;13.70;70.70
2010;DHT22;1008;47.404;8.502;2024-02-14T11:53:42;13.60;72.10
2010;DHT22;1008;47.404;8.502;2024-02-14T11:56:08;13.50;72.80
2010;DHT22;1008;47.404;8.502;2024-02-14T11:58:35;13.40;73.10
2010;DHT22;1008;47.404;8.502;2024-02-14T12:01:03;13.20;73.70
2010;DHT22;1008;47.404;8.502;2024-02-14T12:03:31;13.30;74.70
2010;DHT22;1008;47.404;8.502;2024-02-14T12:06:00;13.30;76.00
2010;DHT22;1008;47.404;8.502;2024-02-14T12:08:28;13.70;75.50
2010;DHT22;1008;47.404;8.502;2024-02-14T12:10:55;13.80;75.30
2010;DHT22;1008;47.404;8.502;2024-02-14T12:13:22;14.00;75.60
2010;DHT22;1008;47.404;8.502;2024-02-14T12:15:50;14.20;74.30
2010;DHT22;1008;47.404;8.502;2024-02-14T12:18:18;14.10;73.30
2010;DHT22;1008;47.404;8.502;2024-02-14T12:20:45;14.10;74.00
2010;DHT22;1008;47.404;8.502;2024-02-14T12:23:15;13.90;73.90
2010;DHT22;1008;47.404;8.502;2024-02-14T12:25:43;13.60;75.40
2010;DHT22;1008;47.404;8.502;2024-02-14T12:28:13;13.40;75.80
2010;DHT22;1008;47.404;8.502;2024-02-14T12:30:45;13.40;77.90
2010;DHT22;1008;47.404;8.502;2024-02-14T12:33:14;13.20;76.20
2010;DHT22;1008;47.404;8.502;2024-02-14T12:35:42;13.30;77.70
2010;DHT22;1008;47.404;8.502;2024-02-14T12:38:10;13.40;77.00
2010;DHT22;1008;47.404;8.502;2024-02-14T12:40:38;13.50;77.60
2010;DHT22;1008;47.404;8.502;2024-02-14T12:43:07;13.20;77.60
2010;DHT22;1008;47.404;8.502;2024-02-14T12:45:33;13.20;79.20
2010;DHT22;1008;47.404;8.502;2024-02-14T12:48:00;13.30;79.80
2010;DHT22;1008;47.404;8.502;2024-02-14T12:50:27;13.30;79.50
2010;DHT22;1008;47.404;8.502;2024-02-14T12:52:54;13.30;79.20
2010;DHT22;1008;47.404;8.502;2024-02-14T12:55:21;13.30;79.40
2010;DHT22;1008;47.404;8.502;2024-02-14T12:57:50;13.30;78.90
2010;DHT22;1008;47.404;8.502;2024-02-14T13:00:17;13.30;78.80
2010;DHT22;1008;47.404;8.502;2024-02-14T13:02:44;13.50;79.20
2010;DHT22;1008;47.404;8.502;2024-02-14T13:05:11;13.70;80.20
2010;DHT22;1008;47.404;8.502;2024-02-14T13:07:37;13.70;79.80
2010;DHT22;1008;47.404;8.502;2024-02-14T13:10:05;13.60;79.10
2010;DHT22;1008;47.404;8.502;2024-02-14T13:12:33;13.60;79.50
2010;DHT22;1008;47.404;8.502;2024-02-14T13:15:01;13.70;80.90
2010;DHT22;1008;47.404;8.502;2024-02-14T13:17:28;13.70;78.70
2010;DHT22;1008;47.404;8.502;2024-02-14T13:19:55;13.80;79.00
2010;DHT22;1008;47.404;8.502;2024-02-14T13:22:22;14.10;79.30
2010;DHT22;1008;47.404;8.502;2024-02-14T13:24:49;14.20;79.20
2010;DHT22;1008;47.404;8.502;2024-02-14T13:27:15;14.40;79.30
2010;DHT22;1008;47.404;8.502;2024-02-14T13:29:42;14.70;78.60
2010;DHT22;1008;47.404;8.502;2024-02-14T13:32:10;15.00;77.40
2010;DHT22;1008;47.404;8.502;2024-02-14T13:34:37;14.90;77.10
2010;DHT22;1008;47.404;8.502;2024-02-14T13:37:04;14.70;76.40
2010;DHT22;1008;47.404;8.502;2024-02-14T13:39:31;14.60;78.00
2010;DHT22;1008;47.404;8.502;2024-02-14T13:41:57;14.50;77.80
2010;DHT22;1008;47.404;8.502;2024-02-14T13:44:25;14.80;78.80
2010;DHT22;1008;47.404;8.502;2024-02-14T13:46:52;15.10;80.00
2010;DHT22;1008;47.404;8.502;2024-02-14T13:49:20;15.00;77.70
2010;DHT22;1008;47.404;8.502;2024-02-14T13:51:48;14.80;78.80
2010;DHT22;1008;47.404;8.502;2024-02-14T13:54:15;15.00;79.00
2010;DHT22;1008;47.404;8.502;2024-02-14T13:56:42;14.80;80.30
2010;DHT22;1008;47.404;8.502;2024-02-14T13:59:09;14.80;82.00
2010;DHT22;1008;47.404;8.502;2024-02-14T14:01:36;14.50;82.90
2010;DHT22;1008;47.404;8.502;2024-02-14T14:04:03;14.30;84.80
2010;DHT22;1008;47.404;8.502;2024-02-14T14:06:31;14.60;85.20
2010;DHT22;1008;47.404;8.502;2024-02-14T14:08:59;14.20;86.40
2010;DHT22;1008;47.404;8.502;2024-02-14T14:11:25;14.20;86.20
2010;DHT22;1008;47.404;8.502;2024-02-14T14:13:52;14.40;86.10
2010;DHT22;1008;47.404;8.502;2024-02-14T14:16:19;14.20;86.00
2010;DHT22;1008;47.404;8.502;2024-02-14T14:18:48;14.50;87.10
2010;DHT22;1008;47.404;8.502;2024-02-14T14:21:14;14.40;86.20
2010;DHT22;1008;47.404;8.502;2024-02-14T14:23:43;14.40;86.90
2010;DHT22;1008;47.404;8.502;2024-02-14T14:26:09;14.30;87.80
2010;DHT22;1008;47.404;8.502;2024-02-14T14:28:36;14.50;88.40
2010;DHT22;1008;47.404;8.502;2024-02-14T14:31:03;14.60;87.70
2010;DHT22;1008;47.404;8.502;2024-02-14T14:33:29;14.70;87.30
2010;DHT22;1008;47.404;8.502;2024-02-14T14:35:56;14.80;83.40
2010;DHT22;1008;47.404;8.502;2024-02-14T14:38:23;14.50;82.30
2010;DHT22;1008;47.404;8.502;2024-02-14T14:40:53;14.50;81.00
2010;DHT22;1008;47.404;8.502;2024-02-14T14:43:21;14.50;80.80
2010;DHT22;1008;47.404;8.502;2024-02-14T14:45:48;14.60;80.70
2010;DHT22;1008;47.404;8.502;2024-02-14T14:48:15;14.70;78.30
2010;DHT22;1008;47.404;8.502;2024-02-14T14:50:42;14.70;79.00
2010;DHT22;1008;47.404;8.502;2024-02-14T14:53:09;14.70;79.30
2010;DHT22;1008;47.404;8.502;2024-02-14T14:55:54;14.60;77.90
2010;DHT22;1008;47.404;8.502;2024-02-14T14:58:21;14.40;79.50
2010;DHT22;1008;47.404;8.502;2024-02-14T15:00:49;14.10;80.40
2010;DHT22;1008;47.404;8.502;2024-02-14T15:03:15;14.00;81.40
2010;DHT22;1008;47.404;8.502;2024-02-14T15:05:42;14.10;81.90
2010;DHT22;1008;47.404;8.502;2024-02-14T15:08:09;14.10;81.00
2010;DHT22;1008;47.404;8.502;2024-02-14T15:10:35;14.00;81.50
2010;DHT22;1008;47.404;8.502;2024-02-14T15:13:04;14.10;82.00
2010;DHT22;1008;47.404;8.502;2024-02-14T15:15:31;14.10;81.00
2010;DHT22;1008;47.404;8.502;2024-02-14T15:17:58;14.30;82.60
2010;DHT22;1008;47.404;8.502;2024-02-14T15:20:25;14.10;81.80
2010;DHT22;1008;47.404;8.502;2024-02-14T15:22:52;14.10;81.30
2010;DHT22;1008;47.404;8.502;2024-02-14T15:25:19;14.10;82.60
2010;DHT22;1008;47.404;8.502;2024-02-14T15:27:45;14.00;82.30
2010;DHT22;1008;47.404;8.502;2024-02-14T15:30:21;14.00;82.40
2010;DHT22;1008;47.404;8.502;2024-02-14T15:33:06;13.90;83.80
2010;DHT22;1008;47.404;8.502;2024-02-14T15:35:48;13.90;84.40
2010;DHT22;1008;47.404;8.502;2024-02-14T15:38:15;13.90;84.90
2010;DHT22;1008;47.404;8.502;2024-02-14T15:40:44;13.80;85.10
2010;DHT22;1008;47.404;8.502;2024-02-14T15:43:11;13.70;84.80
2010;DHT22;1008;47.404;8.502;2024-02-14T15:45:40;13.80;85.20
2010;DHT22;1008;47.404;8.502;2024-02-14T15:48:07;13.70;85.00
2010;DHT22;1008;47.404;8.502;2024-02-14T15:50:34;13.60;86.80
2010;DHT22;1008;47.404;8.502;2024-02-14T15:53:01;13.60;86.30
2010;DHT22;1008;47.404;8.502;2024-02-14T15:55:28;13.60;86.30
2010;DHT22;1008;47.404;8.502;2024-02-14T15:57:55;13.50;87.90
2010;DHT22;1008;47.404;8.502;2024-02-14T16:00:23;13.50;87.10
2010;DHT22;1008;47.404;8.502;2024-02-14T16:02:53;13.60;87.00
2010;DHT22;1008;47.404;8.502;2024-02-14T16:05:20;13.50;87.30
2010;DHT22;1008;47.404;8.502;2024-02-14T16:07:47;13.50;83.40
2010;DHT22;1008;47.404;8.502;2024-02-14T16:10:14;13.30;82.50
2010;DHT22;1008;47.404;8.502;2024-02-14T16:12:42;13.30;82.50
2010;DHT22;1008;47.404;8.502;2024-02-14T16:15:10;13.30;81.70